Time;durP1;ratioP1;P1;durP2;ratioP2;P2;SDS_P1;SDS_P2;PMS_P1;PMS_P2;Temp;Humidity;BMP_temperature;BMP_pressure;BME280_temperature;BME280_humidity;BME280_pressure;Samples;Min_cycle;Max_cycle;Signal;HPM_P1;HPM_P2
2022/04/24 00:01:30;;;;;;;;;;;13.70;99.90;;;;;;5049196;28;19943;-91
2022/04/24 00:03:55;;;;;;;;;;;13.70;99.90;;;;;;5048761;28;19935;-90
2022/04/24 00:06:21;;;;;;;;;;;13.70;99.90;;;;;;5049249;28;20381;-93
2022/04/24 00:08:47;;;;;;;;;;;13.70;99.90;;;;;;5050554;28;19916;-90
2022/04/24 00:11:12;;;;;;;;;;;13.70;99.90;;;;;;5050334;28;19916;-91
2022/04/24 00:13:41;;;;;;;;;;;13.70;99.90;;;;;;5049286;28;19971;-91
2022/04/24 00:16:07;;;;;;;;;;;13.70;99.90;;;;;;5048835;28;19916;-92
2022/04/24 00:18:33;;;;;;;;;;;13.70;99.90;;;;;;5048643;28;19932;-93
2022/04/24 00:21:01;;;;;;;;;;;13.70;99.90;;;;;;5031733;28;22591;-91
2022/04/24 00:23:27;;;;;;;;;;;13.70;99.90;;;;;;5049039;28;20011;-93
2022/04/24 00:25:52;;;;;;;;;;;13.70;99.90;;;;;;5051842;28;19928;-93
2022/04/24 00:28:18;;;;;;;;;;;13.70;99.90;;;;;;5052632;28;19916;-91
2022/04/24 00:30:44;;;;;;;;;;;13.70;99.90;;;;;;5070452;28;20117;-93
2022/04/24 00:33:09;;;;;;;;;;;13.60;99.90;;;;;;5061068;28;19912;-91
2022/04/24 00:35:35;;;;;;;;;;;13.70;99.90;;;;;;5059480;28;20269;-90
2022/04/24 00:38:00;;;;;;;;;;;13.60;99.90;;;;;;5052147;28;19940;-91
2022/04/24 00:40:26;;;;;;;;;;;13.70;99.90;;;;;;5070036;28;19999;-90
2022/04/24 00:42:52;;;;;;;;;;;13.70;99.90;;;;;;5051822;28;19909;-90
2022/04/24 00:45:17;;;;;;;;;;;13.60;99.90;;;;;;5052148;28;20029;-91
2022/04/24 00:47:43;;;;;;;;;;;13.60;99.90;;;;;;5052938;28;19916;-91
2022/04/24 00:50:08;;;;;;;;;;;13.60;99.90;;;;;;5073395;28;20387;-93
2022/04/24 00:52:34;;;;;;;;;;;13.60;99.90;;;;;;5056105;28;19909;-91
2022/04/24 00:55:00;;;;;;;;;;;13.50;99.90;;;;;;5056057;28;19924;-92
2022/04/24 00:57:26;;;;;;;;;;;13.50;99.90;;;;;;5055799;28;19909;-93
2022/04/24 00:59:51;;;;;;;;;;;13.50;99.90;;;;;;5073864;28;19912;-91
2022/04/24 01:02:17;;;;;;;;;;;13.60;99.90;;;;;;5055996;28;19919;-91
2022/04/24 01:04:42;;;;;;;;;;;13.60;99.90;;;;;;5055717;28;19917;-91
2022/04/24 01:07:08;;;;;;;;;;;13.60;99.90;;;;;;5074420;28;19920;-91
2022/04/24 01:09:35;;;;;;;;;;;13.70;99.90;;;;;;5055687;28;19912;-90
2022/04/24 01:12:01;;;;;;;;;;;13.70;99.90;;;;;;5055665;28;20098;-91
2022/04/24 01:14:28;;;;;;;;;;;13.70;99.90;;;;;;5073518;28;19909;-90
2022/04/24 01:16:54;;;;;;;;;;;13.70;99.90;;;;;;5073816;28;19924;-90
2022/04/24 01:19:20;;;;;;;;;;;13.70;99.90;;;;;;5055339;28;19908;-91
2022/04/24 01:21:47;;;;;;;;;;;13.70;99.90;;;;;;5073362;28;19981;-91
2022/04/24 01:24:15;;;;;;;;;;;13.70;99.90;;;;;;5055142;28;19928;-91
2022/04/24 01:26:40;;;;;;;;;;;13.70;99.90;;;;;;5055196;28;19924;-91
2022/04/24 01:29:06;;;;;;;;;;;13.70;99.90;;;;;;5072938;28;19913;-90
2022/04/24 01:31:32;;;;;;;;;;;13.70;99.90;;;;;;5047155;28;19909;-91
2022/04/24 01:33:58;;;;;;;;;;;13.70;99.90;;;;;;5035256;28;19909;-91
2022/04/24 01:36:23;;;;;;;;;;;13.70;99.90;;;;;;5035865;28;19916;-91
2022/04/24 01:38:49;;;;;;;;;;;13.80;99.90;;;;;;5035324;28;19909;-91
2022/04/24 01:41:15;;;;;;;;;;;13.80;99.90;;;;;;5053443;28;20339;-91
2022/04/24 01:43:41;;;;;;;;;;;13.80;99.90;;;;;;5046876;28;19916;-91
2022/04/24 01:46:08;;;;;;;;;;;13.80;99.90;;;;;;5072296;28;20050;-92
2022/04/24 01:48:34;;;;;;;;;;;13.80;99.90;;;;;;5054300;28;19909;-92
2022/04/24 01:51:03;;;;;;;;;;;13.80;99.90;;;;;;5053884;28;19931;-93
2022/04/24 01:53:28;;;;;;;;;;;13.80;99.90;;;;;;5043532;28;19920;-91
2022/04/24 01:55:58;;;;;;;;;;;13.90;99.90;;;;;;5034937;28;19916;-92
2022/04/24 01:58:24;;;;;;;;;;;13.90;99.90;;;;;;5070747;28;19908;-91
2022/04/24 02:00:50;;;;;;;;;;;13.90;99.90;;;;;;5071517;28;19909;-91
2022/04/24 02:03:16;;;;;;;;;;;13.90;99.90;;;;;;5053936;28;20372;-92
2022/04/24 02:05:41;;;;;;;;;;;13.90;99.90;;;;;;5068781;28;19915;-91
2022/04/24 02:08:07;;;;;;;;;;;13.90;99.90;;;;;;5034798;28;20011;-91
2022/04/24 02:10:32;;;;;;;;;;;13.90;99.90;;;;;;5034849;28;19909;-92
2022/04/24 02:13:00;;;;;;;;;;;13.90;99.90;;;;;;5034780;28;19949;-92
2022/04/24 02:15:26;;;;;;;;;;;13.90;99.90;;;;;;5052516;28;19962;-91
2022/04/24 02:17:52;;;;;;;;;;;14.00;99.90;;;;;;5052257;28;19995;-90
2022/04/24 02:20:18;;;;;;;;;;;14.00;99.90;;;;;;5048297;28;20003;-92
2022/04/24 02:22:43;;;;;;;;;;;14.10;99.90;;;;;;5060895;28;20364;-91
2022/04/24 02:25:09;;;;;;;;;;;14.00;99.90;;;;;;5043902;28;19921;-91
2022/04/24 02:27:34;;;;;;;;;;;14.00;99.90;;;;;;5063603;28;19909;-91
2022/04/24 02:30:00;;;;;;;;;;;14.00;99.90;;;;;;5034744;28;19968;-91
2022/04/24 02:32:26;;;;;;;;;;;14.00;99.90;;;;;;5034101;28;19909;-91
2022/04/24 02:34:52;;;;;;;;;;;14.00;99.90;;;;;;5033633;28;19913;-91
2022/04/24 02:37:17;;;;;;;;;;;13.90;99.90;;;;;;5034679;28;19909;-93
2022/04/24 02:39:43;;;;;;;;;;;13.80;99.90;;;;;;5034331;28;19948;-93
2022/04/24 02:42:08;;;;;;;;;;;13.90;99.90;;;;;;5052075;28;20277;-92
2022/04/24 02:44:34;;;;;;;;;;;13.80;99.90;;;;;;5033978;28;19909;-91
2022/04/24 02:47:00;;;;;;;;;;;13.80;99.90;;;;;;5051586;28;19955;-94
2022/04/24 02:49:26;;;;;;;;;;;13.80;99.90;;;;;;5033409;28;19975;-91
2022/04/24 02:51:51;;;;;;;;;;;13.80;99.90;;;;;;5033889;28;19916;-93
2022/04/24 02:54:17;;;;;;;;;;;13.80;99.90;;;;;;5034044;28;20408;-94
2022/04/24 02:56:42;;;;;;;;;;;13.80;99.90;;;;;;5033856;28;20016;-91
2022/04/24 02:59:09;;;;;;;;;;;13.80;99.90;;;;;;5051845;28;19913;-93
2022/04/24 03:01:34;;;;;;;;;;;13.80;99.90;;;;;;5033583;28;20281;-93
2022/04/24 03:04:00;;;;;;;;;;;13.80;99.90;;;;;;5051040;28;19909;-92
2022/04/24 03:06:26;;;;;;;;;;;13.80;99.90;;;;;;5033078;28;19974;-91
2022/04/24 03:08:51;;;;;;;;;;;13.80;99.90;;;;;;5033764;28;20277;-91
2022/04/24 03:11:17;;;;;;;;;;;13.80;99.90;;;;;;5051471;28;19916;-91
2022/04/24 03:13:43;;;;;;;;;;;13.80;99.90;;;;;;5033484;28;19909;-91
2022/04/24 03:16:09;;;;;;;;;;;13.80;99.90;;;;;;5033600;28;19928;-91
2022/04/24 03:18:34;;;;;;;;;;;13.70;99.90;;;;;;5033080;28;19909;-92
2022/04/24 03:21:00;;;;;;;;;;;13.70;99.90;;;;;;5051123;28;20144;-92
2022/04/24 03:23:26;;;;;;;;;;;13.70;99.90;;;;;;5051065;28;19961;-91
2022/04/24 03:25:51;;;;;;;;;;;13.70;99.90;;;;;;5049676;28;20397;-92
2022/04/24 03:28:17;;;;;;;;;;;13.70;99.90;;;;;;5050105;28;19991;-92
2022/04/24 03:30:43;;;;;;;;;;;13.70;99.90;;;;;;5044479;28;19916;-91
2022/04/24 03:33:09;;;;;;;;;;;13.70;99.90;;;;;;5049590;28;19940;-91
2022/04/24 03:35:34;;;;;;;;;;;13.70;99.90;;;;;;5049705;28;20404;-91
2022/04/24 03:38:00;;;;;;;;;;;13.70;99.90;;;;;;5049875;28;19909;-91
2022/04/24 03:40:26;;;;;;;;;;;13.80;99.90;;;;;;5049741;28;19962;-90
2022/04/24 03:42:51;;;;;;;;;;;13.80;99.90;;;;;;5050925;28;20464;-92
2022/04/24 03:45:17;;;;;;;;;;;13.80;99.90;;;;;;5050963;28;19909;-92
2022/04/24 03:47:43;;;;;;;;;;;13.70;99.90;;;;;;5050530;28;19909;-92
2022/04/24 03:50:08;;;;;;;;;;;13.70;99.90;;;;;;5050820;28;20011;-92
2022/04/24 03:52:34;;;;;;;;;;;13.60;99.90;;;;;;5049328;28;20036;-91
2022/04/24 03:55:00;;;;;;;;;;;13.50;99.90;;;;;;5046119;28;19959;-90
2022/04/24 03:57:25;;;;;;;;;;;13.60;99.90;;;;;;5050609;28;20494;-92
2022/04/24 03:59:51;;;;;;;;;;;13.50;99.90;;;;;;5049190;28;19913;-91
2022/04/24 04:02:17;;;;;;;;;;;13.50;99.90;;;;;;5050531;28;19913;-92
2022/04/24 04:04:42;;;;;;;;;;;13.60;99.90;;;;;;5050644;28;19908;-91
2022/04/24 04:07:08;;;;;;;;;;;13.60;99.90;;;;;;5050472;28;19952;-90
2022/04/24 04:09:34;;;;;;;;;;;13.60;99.90;;;;;;5044727;28;19967;-93
2022/04/24 04:11:59;;;;;;;;;;;13.60;99.90;;;;;;5049352;28;19921;-92
2022/04/24 04:14:25;;;;;;;;;;;13.60;99.90;;;;;;5049083;28;19909;-91
2022/04/24 04:16:51;;;;;;;;;;;13.60;99.90;;;;;;5048842;28;19917;-90
2022/04/24 04:19:16;;;;;;;;;;;13.60;99.90;;;;;;5065779;28;19932;-92
2022/04/24 04:21:43;;;;;;;;;;;13.50;99.90;;;;;;5051703;28;19919;-91
2022/04/24 04:24:09;;;;;;;;;;;13.60;99.90;;;;;;5055451;28;19932;-92
2022/04/24 04:26:35;;;;;;;;;;;13.60;99.90;;;;;;5055828;28;19908;-90
2022/04/24 04:29:00;;;;;;;;;;;13.60;99.90;;;;;;5055790;28;20403;-90
2022/04/24 04:31:26;;;;;;;;;;;13.60;99.90;;;;;;5055719;28;19908;-91
2022/04/24 04:33:51;;;;;;;;;;;13.50;99.90;;;;;;5055658;28;19916;-92
2022/04/24 04:36:17;;;;;;;;;;;13.60;99.90;;;;;;5055599;28;19916;-91
2022/04/24 04:38:43;;;;;;;;;;;13.50;99.90;;;;;;5055572;28;19909;-90
2022/04/24 04:41:08;;;;;;;;;;;13.50;99.90;;;;;;5057071;28;19913;-92
2022/04/24 04:43:34;;;;;;;;;;;13.60;99.90;;;;;;5056933;28;20091;-92
2022/04/24 04:46:00;;;;;;;;;;;13.60;99.90;;;;;;5052776;28;19984;-92
2022/04/24 04:48:26;;;;;;;;;;;13.50;99.90;;;;;;5055202;28;20007;-92
2022/04/24 04:50:51;;;;;;;;;;;13.50;99.90;;;;;;5056763;28;19916;-93
2022/04/24 04:53:17;;;;;;;;;;;13.50;99.90;;;;;;5056721;28;19963;-92
2022/04/24 04:55:43;;;;;;;;;;;13.50;99.90;;;;;;5045069;28;19917;-92
2022/04/24 04:58:08;;;;;;;;;;;13.40;99.90;;;;;;5055644;28;20024;-90
2022/04/24 05:00:34;;;;;;;;;;;13.50;99.90;;;;;;5056792;28;19948;-90
2022/04/24 05:02:59;;;;;;;;;;;13.40;99.90;;;;;;5055102;28;19970;-91
2022/04/24 05:05:25;;;;;;;;;;;13.40;99.90;;;;;;5056807;28;20377;-92
2022/04/24 05:07:51;;;;;;;;;;;13.40;99.90;;;;;;5056555;28;19909;-91
2022/04/24 05:10:17;;;;;;;;;;;13.40;99.90;;;;;;5056473;28;19909;-91
2022/04/24 05:12:43;;;;;;;;;;;13.40;99.90;;;;;;5048988;28;19916;-93
2022/04/24 05:15:12;;;;;;;;;;;13.40;99.90;;;;;;5054958;28;19908;-91
2022/04/24 05:17:38;;;;;;;;;;;13.40;99.90;;;;;;5056568;28;20436;-92
2022/04/24 05:20:04;;;;;;;;;;;13.40;99.90;;;;;;5055567;28;19909;-92
2022/04/24 05:22:30;;;;;;;;;;;13.40;99.90;;;;;;5050105;28;19909;-91
2022/04/24 05:24:55;;;;;;;;;;;13.40;99.90;;;;;;5055118;28;20075;-93
2022/04/24 05:27:21;;;;;;;;;;;13.50;99.90;;;;;;5054856;28;19977;-91
2022/04/24 05:29:47;;;;;;;;;;;13.50;99.90;;;;;;5054972;28;19999;-92
2022/04/24 05:32:13;;;;;;;;;;;13.50;99.90;;;;;;5055252;28;20280;-90
2022/04/24 05:34:39;;;;;;;;;;;13.50;99.90;;;;;;5051964;28;19949;-91
2022/04/24 05:37:05;;;;;;;;;;;13.60;99.90;;;;;;5051961;28;20011;-91
2022/04/24 05:39:30;;;;;;;;;;;13.60;99.90;;;;;;5053209;28;19914;-91
2022/04/24 05:41:56;;;;;;;;;;;13.60;99.90;;;;;;5053491;28;19963;-92
2022/04/24 05:44:21;;;;;;;;;;;13.50;99.90;;;;;;5048948;28;19916;-92
2022/04/24 05:46:47;;;;;;;;;;;13.60;99.90;;;;;;5052859;28;19909;-92
2022/04/24 05:49:13;;;;;;;;;;;13.60;99.90;;;;;;5048009;28;19963;-93
2022/04/24 05:51:38;;;;;;;;;;;13.60;99.90;;;;;;5053254;28;20442;-91
2022/04/24 05:54:04;;;;;;;;;;;13.70;99.90;;;;;;5051559;28;19909;-91
2022/04/24 05:56:29;;;;;;;;;;;13.70;99.90;;;;;;5047188;28;20047;-91
2022/04/24 05:58:55;;;;;;;;;;;13.80;99.90;;;;;;5051574;28;19909;-90
2022/04/24 06:01:21;;;;;;;;;;;13.80;99.90;;;;;;5051934;28;20353;-92
2022/04/24 06:03:47;;;;;;;;;;;13.70;99.90;;;;;;5051034;28;19909;-90
2022/04/24 06:06:13;;;;;;;;;;;13.70;99.90;;;;;;5052652;28;19908;-92
2022/04/24 06:08:39;;;;;;;;;;;13.90;99.90;;;;;;5045296;28;19920;-92
2022/04/24 06:11:04;;;;;;;;;;;13.90;99.90;;;;;;5059540;28;19919;-91
2022/04/24 06:13:30;;;;;;;;;;;13.90;99.90;;;;;;5063068;28;19909;-90
2022/04/24 06:15:57;;;;;;;;;;;13.90;99.90;;;;;;5045120;28;19956;-92
2022/04/24 06:18:26;;;;;;;;;;;14.00;99.90;;;;;;5051964;28;19954;-88
2022/04/24 06:20:51;;;;;;;;;;;14.00;99.90;;;;;;5052212;28;20288;-88
2022/04/24 06:23:17;;;;;;;;;;;14.00;99.90;;;;;;5051780;28;19995;-88
2022/04/24 06:25:42;;;;;;;;;;;14.10;99.90;;;;;;5070448;28;19975;-90
2022/04/24 06:28:08;;;;;;;;;;;14.10;99.90;;;;;;5072709;28;20372;-90
2022/04/24 06:30:38;;;;;;;;;;;14.20;99.90;;;;;;5071893;28;19908;-89
2022/04/24 06:33:06;;;;;;;;;;;14.10;99.90;;;;;;5071637;28;19909;-89
2022/04/24 06:35:32;;;;;;;;;;;14.00;99.90;;;;;;5071657;28;19962;-88
2022/04/24 06:37:58;;;;;;;;;;;14.00;99.90;;;;;;5053679;28;19951;-88
2022/04/24 06:40:24;;;;;;;;;;;14.00;99.90;;;;;;5053320;28;19913;-89
2022/04/24 06:42:49;;;;;;;;;;;14.10;99.90;;;;;;5071373;28;19908;-89
2022/04/24 06:45:16;;;;;;;;;;;14.20;99.90;;;;;;5071446;28;19954;-90
2022/04/24 06:47:42;;;;;;;;;;;14.20;99.90;;;;;;5053348;28;19920;-90
2022/04/24 06:50:08;;;;;;;;;;;14.20;99.90;;;;;;5053160;28;19927;-92
2022/04/24 06:52:34;;;;;;;;;;;14.20;99.90;;;;;;5070901;28;19932;-90
2022/04/24 06:55:00;;;;;;;;;;;14.20;99.90;;;;;;5071319;28;20356;-90
2022/04/24 06:57:26;;;;;;;;;;;14.20;99.90;;;;;;5053168;28;20002;-90
2022/04/24 06:59:51;;;;;;;;;;;14.20;99.90;;;;;;5053475;28;19987;-91
2022/04/24 07:02:17;;;;;;;;;;;14.20;99.90;;;;;;5052782;28;20429;-91
2022/04/24 07:04:42;;;;;;;;;;;14.30;99.90;;;;;;5057601;28;19923;-90
2022/04/24 07:07:08;;;;;;;;;;;14.30;99.90;;;;;;5056472;28;19948;-90
2022/04/24 07:09:33;;;;;;;;;;;14.30;99.90;;;;;;5060167;28;19915;-92
2022/04/24 07:11:59;;;;;;;;;;;14.40;99.90;;;;;;5061345;28;19905;-92
2022/04/24 07:14:25;;;;;;;;;;;14.50;99.90;;;;;;5078671;28;19928;-92
2022/04/24 07:16:50;;;;;;;;;;;14.50;99.90;;;;;;5064194;28;19920;-92
2022/04/24 07:19:16;;;;;;;;;;;14.60;99.90;;;;;;5060105;28;19915;-91
2022/04/24 07:21:42;;;;;;;;;;;14.70;99.90;;;;;;5059835;28;19976;-91
2022/04/24 07:24:07;;;;;;;;;;;14.80;99.90;;;;;;5055233;28;19924;-92
2022/04/24 07:26:33;;;;;;;;;;;14.90;99.90;;;;;;5077130;28;19916;-93
2022/04/24 07:28:59;;;;;;;;;;;15.00;99.90;;;;;;5071669;28;19912;-94
2022/04/24 07:31:25;;;;;;;;;;;14.90;99.90;;;;;;5050707;28;19916;-89
2022/04/24 07:33:52;;;;;;;;;;;14.80;99.90;;;;;;5074351;28;19916;-91
2022/04/24 07:36:18;;;;;;;;;;;14.80;99.90;;;;;;5073688;28;19917;-88
2022/04/24 07:38:43;;;;;;;;;;;14.90;99.90;;;;;;5054462;28;19958;-90
2022/04/24 07:41:09;;;;;;;;;;;14.80;99.90;;;;;;5058590;28;19912;-89
2022/04/24 07:43:35;;;;;;;;;;;14.80;99.90;;;;;;5056117;28;19908;-91
2022/04/24 07:46:00;;;;;;;;;;;14.70;99.90;;;;;;5070527;28;19948;-89
2022/04/24 07:48:26;;;;;;;;;;;14.70;99.90;;;;;;5070224;28;19909;-89
2022/04/24 07:50:52;;;;;;;;;;;14.80;99.90;;;;;;5072399;28;20128;-92
2022/04/24 07:53:18;;;;;;;;;;;14.80;99.90;;;;;;5052499;28;19912;-89
2022/04/24 07:55:45;;;;;;;;;;;14.80;99.90;;;;;;5070310;28;19912;-90
2022/04/24 07:58:11;;;;;;;;;;;14.90;99.90;;;;;;5052034;28;19955;-89
2022/04/24 08:00:37;;;;;;;;;;;14.90;99.90;;;;;;5070687;28;20037;-90
2022/04/24 08:03:09;;;;;;;;;;;14.90;99.90;;;;;;5073401;28;19931;-89
2022/04/24 08:05:42;;;;;;;;;;;15.00;99.90;;;;;;5057677;28;19909;-90
2022/04/24 08:08:08;;;;;;;;;;;15.00;99.90;;;;;;5071040;28;20258;-89
2022/04/24 08:10:35;;;;;;;;;;;14.90;99.90;;;;;;5069410;28;19919;-89
2022/04/24 08:13:04;;;;;;;;;;;14.80;99.90;;;;;;5070469;28;20305;-90
2022/04/24 08:15:30;;;;;;;;;;;14.70;99.90;;;;;;5070413;28;19923;-90
2022/04/24 08:17:56;;;;;;;;;;;14.70;99.90;;;;;;5070254;28;20135;-88
2022/04/24 08:20:21;;;;;;;;;;;14.80;99.90;;;;;;5070340;28;20534;-89
2022/04/24 08:22:48;;;;;;;;;;;14.70;99.90;;;;;;5052300;28;20439;-89
2022/04/24 08:25:15;;;;;;;;;;;14.80;99.90;;;;;;5070196;28;19928;-88
2022/04/24 08:27:41;;;;;;;;;;;14.80;99.90;;;;;;5070390;28;19909;-88
2022/04/24 08:30:09;;;;;;;;;;;14.90;99.90;;;;;;5071840;28;20185;-88
2022/04/24 08:32:35;;;;;;;;;;;14.80;99.90;;;;;;5069665;28;19915;-89
2022/04/24 08:35:00;;;;;;;;;;;14.80;99.90;;;;;;5070421;28;19909;-90
2022/04/24 08:37:26;;;;;;;;;;;14.80;99.90;;;;;;5071432;28;20277;-89
2022/04/24 08:39:52;;;;;;;;;;;14.80;99.90;;;;;;5071130;28;19919;-90
2022/04/24 08:42:18;;;;;;;;;;;14.80;99.90;;;;;;5077922;28;19944;-91
2022/04/24 08:44:46;;;;;;;;;;;15.00;99.90;;;;;;5069085;28;19995;-89
2022/04/24 08:47:13;;;;;;;;;;;15.10;99.90;;;;;;5069098;28;19922;-91
2022/04/24 08:49:39;;;;;;;;;;;15.30;99.90;;;;;;5050323;28;19920;-89
2022/04/24 08:52:05;;;;;;;;;;;15.30;99.90;;;;;;5073840;28;19908;-89
2022/04/24 08:54:31;;;;;;;;;;;15.30;99.90;;;;;;5071412;28;19924;-90
2022/04/24 08:56:58;;;;;;;;;;;15.20;99.90;;;;;;5052846;28;20012;-90
2022/04/24 08:59:24;;;;;;;;;;;15.30;99.90;;;;;;5052363;28;19965;-90
2022/04/24 09:01:52;;;;;;;;;;;15.20;99.90;;;;;;5051894;28;19913;-88
2022/04/24 09:04:19;;;;;;;;;;;15.00;99.90;;;;;;5049796;28;19912;-89
2022/04/24 09:06:57;;;;;;;;;;;14.80;99.90;;;;;;5069231;28;19908;-88
2022/04/24 09:09:22;;;;;;;;;;;14.60;99.90;;;;;;5075907;28;20207;-87
2022/04/24 09:11:48;;;;;;;;;;;14.50;99.90;;;;;;5085031;28;19963;-91
2022/04/24 09:14:20;;;;;;;;;;;14.40;99.90;;;;;;5066205;28;19913;-91
2022/04/24 09:16:49;;;;;;;;;;;14.40;99.90;;;;;;5077525;28;19972;-87
2022/04/24 09:19:21;;;;;;;;;;;14.40;99.90;;;;;;5084669;28;20268;-91
2022/04/24 09:21:51;;;;;;;;;;;14.50;99.90;;;;;;5064833;28;20243;-90
2022/04/24 09:24:17;;;;;;;;;;;14.40;99.90;;;;;;5060124;28;19971;-90
2022/04/24 09:27:09;;;;;;;;;;;14.40;99.90;;;;;;5081086;28;19927;-90
2022/04/24 09:29:35;;;;;;;;;;;14.20;99.90;;;;;;5068732;28;19900;-91
2022/04/24 09:32:00;;;;;;;;;;;14.00;99.90;;;;;;5077387;28;19908;-95
2022/04/24 09:34:32;;;;;;;;;;;13.90;99.90;;;;;;5079137;28;19908;-89
2022/04/24 09:36:59;;;;;;;;;;;13.80;99.90;;;;;;5039766;28;20066;-91
2022/04/24 09:39:28;;;;;;;;;;;13.80;99.90;;;;;;5073507;28;20388;-92
2022/04/24 09:42:03;;;;;;;;;;;14.00;99.90;;;;;;5055465;28;20400;-90
2022/04/24 09:44:35;;;;;;;;;;;14.00;99.90;;;;;;5073364;28;19909;-90
2022/04/24 09:47:01;;;;;;;;;;;13.90;99.90;;;;;;5056782;28;20335;-88
2022/04/24 09:49:27;;;;;;;;;;;13.70;99.90;;;;;;5077855;28;20280;-87
2022/04/24 09:51:53;;;;;;;;;;;13.80;99.90;;;;;;5074094;28;19926;-86
2022/04/24 09:54:18;;;;;;;;;;;13.80;99.90;;;;;;5054250;28;19920;-86
2022/04/24 09:56:44;;;;;;;;;;;13.80;99.90;;;;;;5054442;28;20377;-86
2022/04/24 09:59:11;;;;;;;;;;;14.00;99.90;;;;;;5054496;28;19909;-86
2022/04/24 10:01:38;;;;;;;;;;;14.10;99.90;;;;;;5055104;28;19983;-87
2022/04/24 10:04:04;;;;;;;;;;;14.20;99.90;;;;;;5054689;28;20288;-87
2022/04/24 10:06:31;;;;;;;;;;;14.40;99.90;;;;;;5073121;28;19911;-87
2022/04/24 10:08:59;;;;;;;;;;;14.60;99.90;;;;;;5055770;28;19908;-87
2022/04/24 10:11:24;;;;;;;;;;;14.80;99.90;;;;;;5077904;28;19915;-92
2022/04/24 10:13:51;;;;;;;;;;;14.90;99.90;;;;;;5072631;28;20007;-87
2022/04/24 10:16:40;;;;;;;;;;;14.90;99.90;;;;;;5072717;28;19916;-87
2022/04/24 10:19:31;;;;;;;;;;;15.10;99.90;;;;;;5071433;28;19915;-87
2022/04/24 10:22:02;;;;;;;;;;;15.20;99.90;;;;;;5062211;28;19909;-88
2022/04/24 10:24:37;;;;;;;;;;;15.10;99.90;;;;;;5071939;28;19932;-87
2022/04/24 10:27:03;;;;;;;;;;;14.90;99.90;;;;;;5055881;28;19908;-89
2022/04/24 10:29:29;;;;;;;;;;;14.80;99.90;;;;;;5055250;28;20831;-88
2022/04/24 10:31:55;;;;;;;;;;;14.90;99.90;;;;;;5076974;28;19916;-89
2022/04/24 10:34:22;;;;;;;;;;;14.90;99.90;;;;;;5071371;28;20026;-88
2022/04/24 10:36:58;;;;;;;;;;;14.80;99.90;;;;;;5071928;28;19990;-87
2022/04/24 10:39:28;;;;;;;;;;;14.80;99.90;;;;;;5072417;28;19908;-87
2022/04/24 10:41:54;;;;;;;;;;;14.70;99.90;;;;;;5054292;28;19908;-88
2022/04/24 10:44:20;;;;;;;;;;;14.60;99.90;;;;;;5053606;28;20392;-88
2022/04/24 10:46:47;;;;;;;;;;;14.70;99.90;;;;;;5053507;28;20053;-87
2022/04/24 10:49:14;;;;;;;;;;;14.80;99.90;;;;;;5070813;28;19915;-88
2022/04/24 10:51:41;;;;;;;;;;;14.70;99.90;;;;;;5076379;28;20184;-88
2022/04/24 10:54:11;;;;;;;;;;;14.90;99.90;;;;;;5073588;28;19994;-88
2022/04/24 10:56:39;;;;;;;;;;;14.90;99.90;;;;;;5076875;28;20118;-88
2022/04/24 10:59:08;;;;;;;;;;;15.00;99.90;;;;;;5076385;28;19936;-88
2022/04/24 11:01:35;;;;;;;;;;;15.10;99.90;;;;;;5076091;28;19920;-88
2022/04/24 11:04:08;;;;;;;;;;;15.30;99.90;;;;;;5076478;28;20150;-88
2022/04/24 11:06:34;;;;;;;;;;;15.30;99.90;;;;;;5053835;28;19919;-86
2022/04/24 11:09:07;;;;;;;;;;;15.30;99.90;;;;;;5058137;28;19918;-86
2022/04/24 11:11:33;;;;;;;;;;;15.20;99.90;;;;;;5071176;28;20154;-87
2022/04/24 11:14:00;;;;;;;;;;;15.10;99.90;;;;;;5072696;28;19919;-86
2022/04/24 11:16:25;;;;;;;;;;;15.10;99.90;;;;;;5053088;28;19923;-86
2022/04/24 11:18:52;;;;;;;;;;;15.10;99.90;;;;;;5071041;28;20002;-86
2022/04/24 11:21:19;;;;;;;;;;;15.10;99.90;;;;;;5053402;28;19918;-87
2022/04/24 11:23:45;;;;;;;;;;;15.10;99.90;;;;;;5072451;28;19920;-87
2022/04/24 11:26:12;;;;;;;;;;;15.10;99.90;;;;;;5070541;28;19916;-87
2022/04/24 11:28:39;;;;;;;;;;;15.10;99.90;;;;;;5070692;28;19912;-87
2022/04/24 11:31:10;;;;;;;;;;;15.10;99.90;;;;;;5052978;28;20305;-87
2022/04/24 11:33:37;;;;;;;;;;;15.00;99.90;;;;;;5070724;28;20380;-86
2022/04/24 11:36:05;;;;;;;;;;;14.90;99.90;;;;;;5070519;28;19924;-88
2022/04/24 11:38:31;;;;;;;;;;;14.90;99.90;;;;;;5052465;28;20018;-87
2022/04/24 11:40:58;;;;;;;;;;;14.80;99.90;;;;;;5052083;28;20058;-87
2022/04/24 11:43:24;;;;;;;;;;;14.80;99.90;;;;;;5072511;28;19917;-87
2022/04/24 11:51:19;;;;;;;;;;;15.00;99.90;;;;;;5071837;28;19966;-87
2022/04/24 11:53:45;;;;;;;;;;;14.90;99.90;;;;;;5072882;28;19944;-87
2022/04/24 11:56:12;;;;;;;;;;;14.80;99.90;;;;;;5070249;28;20510;-87
2022/04/24 11:58:39;;;;;;;;;;;14.70;99.90;;;;;;5072741;28;19920;-87
2022/04/24 12:01:07;;;;;;;;;;;14.80;99.90;;;;;;5052639;28;19915;-87
2022/04/24 12:03:34;;;;;;;;;;;14.80;99.90;;;;;;5072534;28;19920;-87
2022/04/24 12:06:00;;;;;;;;;;;14.80;99.90;;;;;;5052160;28;20296;-88
2022/04/24 12:08:27;;;;;;;;;;;14.80;99.90;;;;;;5070036;28;20317;-88
2022/04/24 12:10:52;;;;;;;;;;;14.90;99.90;;;;;;5070567;28;20359;-88
2022/04/24 12:13:22;;;;;;;;;;;14.90;99.90;;;;;;5073337;28;19944;-86
2022/04/24 12:15:52;;;;;;;;;;;14.90;99.90;;;;;;5070033;28;20082;-87
2022/04/24 12:18:25;;;;;;;;;;;15.00;99.90;;;;;;5070705;28;20366;-86
2022/04/24 12:20:50;;;;;;;;;;;14.90;99.90;;;;;;5071426;28;19912;-86
2022/04/24 12:23:16;;;;;;;;;;;14.90;99.90;;;;;;5069917;28;19915;-87
2022/04/24 12:25:49;;;;;;;;;;;15.00;99.90;;;;;;5051890;28;19964;-86
2022/04/24 12:28:40;;;;;;;;;;;15.00;99.90;;;;;;5071723;28;19904;-86
2022/04/24 12:31:06;;;;;;;;;;;14.90;99.90;;;;;;5072688;28;19908;-87
2022/04/24 12:33:43;;;;;;;;;;;14.80;99.90;;;;;;5071820;28;20000;-86
2022/04/24 12:36:13;;;;;;;;;;;14.60;99.90;;;;;;5055608;28;19956;-86
2022/04/24 12:38:38;;;;;;;;;;;14.50;99.90;;;;;;5074875;28;19963;-86
2022/04/24 12:41:08;;;;;;;;;;;14.40;99.90;;;;;;5070998;28;19954;-86
2022/04/24 12:43:34;;;;;;;;;;;14.40;99.90;;;;;;5070362;28;19939;-86
2022/04/24 12:45:59;;;;;;;;;;;14.50;99.90;;;;;;5058239;28;19912;-87
2022/04/24 12:48:25;;;;;;;;;;;14.50;99.90;;;;;;5074363;28;20007;-87
2022/04/24 12:50:51;;;;;;;;;;;14.60;99.90;;;;;;5064114;28;19991;-85
2022/04/24 12:53:20;;;;;;;;;;;14.70;99.90;;;;;;5084470;28;19904;-78
2022/04/24 12:55:47;;;;;;;;;;;14.90;99.90;;;;;;5084799;28;19920;-79
2022/04/24 12:58:14;;;;;;;;;;;14.90;99.90;;;;;;5084280;28;20273;-79
2022/04/24 13:00:45;;;;;;;;;;;14.80;99.90;;;;;;5085196;28;20190;-79
2022/04/24 13:03:12;;;;;;;;;;;14.90;99.90;;;;;;5084111;28;19905;-79
2022/04/24 13:05:42;;;;;;;;;;;14.90;99.90;;;;;;5083691;28;20212;-79
2022/04/24 13:08:08;;;;;;;;;;;14.90;99.90;;;;;;5084303;28;19979;-79
2022/04/24 13:10:34;;;;;;;;;;;14.80;99.90;;;;;;5084312;28;19905;-79
2022/04/24 13:13:01;;;;;;;;;;;14.80;99.90;;;;;;5083691;28;20078;-79
2022/04/24 13:15:27;;;;;;;;;;;14.70;99.90;;;;;;5084071;28;19932;-79
2022/04/24 13:18:08;;;;;;;;;;;14.60;99.90;;;;;;5084569;28;20222;-78
2022/04/24 13:20:36;;;;;;;;;;;14.50;99.90;;;;;;5084169;28;20010;-79
2022/04/24 13:23:02;;;;;;;;;;;14.50;99.90;;;;;;5084259;28;19951;-79
2022/04/24 13:25:28;;;;;;;;;;;14.70;99.90;;;;;;5083771;28;19955;-79
2022/04/24 13:27:54;;;;;;;;;;;14.90;99.90;;;;;;5083714;28;19905;-79
2022/04/24 13:30:20;;;;;;;;;;;14.90;99.90;;;;;;5065336;28;19912;-79
2022/04/24 13:32:45;;;;;;;;;;;14.80;99.90;;;;;;5083426;28;20069;-79
2022/04/24 13:35:11;;;;;;;;;;;14.90;99.90;;;;;;5082752;28;19909;-79
2022/04/24 13:40:21;;;;;;;;;;;14.90;99.90;;;;;;5082929;28;19911;-79
2022/04/24 13:42:47;;;;;;;;;;;14.70;99.90;;;;;;5083279;28;19909;-79
2022/04/24 13:45:12;;;;;;;;;;;14.70;99.90;;;;;;5083510;28;20066;-79
2022/04/24 13:47:38;;;;;;;;;;;14.60;99.90;;;;;;5083707;28;19983;-79
2022/04/24 13:50:04;;;;;;;;;;;14.60;99.90;;;;;;5083350;28;19944;-79
2022/04/24 13:52:29;;;;;;;;;;;14.80;99.90;;;;;;5083727;28;19912;-79
2022/04/24 13:54:55;;;;;;;;;;;14.90;99.90;;;;;;5083186;28;19909;-84
2022/04/24 13:57:21;;;;;;;;;;;15.00;99.90;;;;;;5083331;28;19939;-78
2022/04/24 13:59:47;;;;;;;;;;;15.10;99.90;;;;;;5065637;28;20108;-78
2022/04/24 14:02:12;;;;;;;;;;;15.00;99.90;;;;;;5083421;28;19904;-77
2022/04/24 14:04:38;;;;;;;;;;;15.00;99.90;;;;;;5082363;28;19928;-78
2022/04/24 14:07:06;;;;;;;;;;;15.00;99.90;;;;;;5081980;28;19913;-78
2022/04/24 14:09:31;;;;;;;;;;;15.20;99.90;;;;;;5081690;28;19912;-80
2022/04/24 14:11:59;;;;;;;;;;;15.30;99.90;;;;;;5081832;28;20124;-78
2022/04/24 14:14:24;;;;;;;;;;;15.90;99.90;;;;;;5082240;28;20189;-78
2022/04/24 14:16:50;;;;;;;;;;;16.60;99.90;;;;;;5081868;28;19912;-78
2022/04/24 14:19:15;;;;;;;;;;;16.60;99.90;;;;;;5073468;28;19915;-78
2022/04/24 14:21:41;;;;;;;;;;;17.00;99.90;;;;;;5078064;28;20295;-78